^^
Meteo Knjazevac Station Historical Data
Daily Summary for March 18, 2021 Units:  Metric    English   Both
Daily Weekly Monthly Yearly Custom
  High: Low: Average:
Temperature: 7.3 °C -1.1 °C 1.7 °C
Dew Point: 3.3 °C -2.1 °C -0.1 °C
Humidity: 96% 73% 89%
Wind Speed: 16.1km/h 0km/h 3.4km/h
Wind Gust: 27.4km/h - -
Wind- - WSW
Pressure: 1027.3 hPa 1023.6 hPa -
Precipitation: 0 mm    
Historical Graphs
 
 
Tabular Data for March 18, 2021
Time Temperature Dew Point Pressure Wind Wind Speed Wind Gust Humidity Rainfall Rate (Hourly) solar Conditions
00:00 0.4 °C -0.4 °C 1023.6 hPa Calm   6.4 km/h 94% 0 mm 0 W/m2
00:10 0.4 °C -0.4 °C 1023.6 hPa Calm   3.2 km/h 94% 0 mm 0 W/m2
00:20 0.3 °C -0.6 °C 1023.6 hPa North 3.2 km/h 4.8 km/h 94% 0 mm 0 W/m2
00:30 0.2 °C -0.7 °C 1023.6 hPa NE 3.2 km/h 6.4 km/h 94% 0 mm 0 W/m2
00:40 0.1 °C -0.8 °C 1023.6 hPa Calm   6.4 km/h 94% 0 mm 0 W/m2
00:50 0 °C -0.8 °C 1023.6 hPa North 1.6 km/h 4.8 km/h 94% 0 mm 0 W/m2
01:00 0 °C -0.8 °C 1023.6 hPa South 3.2 km/h 8 km/h 94% 0 mm 0 W/m2
01:10 0 °C -0.8 °C 1023.6 hPa SW 1.6 km/h 6.4 km/h 94% 0 mm 0 W/m2
01:20 0.1 °C -0.6 °C 1023.6 hPa WNW 1.6 km/h 4.8 km/h 95% 0 mm 0 W/m2
01:30 0.2 °C -0.5 °C 1023.6 hPa Calm   3.2 km/h 95% 0 mm 0 W/m2
01:40 0.2 °C -0.5 °C 1023.6 hPa NNE 1.6 km/h 6.4 km/h 95% 0 mm 0 W/m2
01:50 0.3 °C -0.4 °C 1023.6 hPa NE 3.2 km/h 9.7 km/h 95% 0 mm 0 W/m2
02:00 0.2 °C -0.5 °C 1023.6 hPa NE 1.6 km/h 4.8 km/h 95% 0 mm 0 W/m2
02:10 0.3 °C -0.4 °C 1023.6 hPa NNE 1.6 km/h 4.8 km/h 95% 0 mm 0 W/m2
02:20 0.3 °C -0.4 °C 1023.6 hPa NW 1.6 km/h 3.2 km/h 95% 0 mm 0 W/m2
02:30 0.3 °C -0.6 °C 1023.6 hPa WNW 1.6 km/h 3.2 km/h 94% 0 mm 0 W/m2
02:40 0.4 °C -0.4 °C 1023.6 hPa NNW 1.6 km/h 4.8 km/h 94% 0 mm 0 W/m2
02:50 0.4 °C -0.4 °C 1023.6 hPa NNW 1.6 km/h 4.8 km/h 94% 0 mm 0 W/m2
03:00 0.4 °C -0.3 °C 1023.6 hPa WNW 1.6 km/h 4.8 km/h 95% 0 mm 0 W/m2
03:10 0.5 °C -0.3 °C 1023.6 hPa Calm   3.2 km/h 94% 0 mm 0 W/m2
03:20 0.5 °C -0.3 °C 1023.6 hPa Calm   3.2 km/h 94% 0 mm 0 W/m2
03:30 0.5 °C -0.3 °C 1023.6 hPa North 3.2 km/h 4.8 km/h 94% 0 mm 0 W/m2
03:40 0.5 °C -0.2 °C 1023.9 hPa Calm   3.2 km/h 95% 0 mm 0 W/m2
03:50 0.4 °C -0.3 °C 1023.9 hPa NW 1.6 km/h 6.4 km/h 95% 0 mm 0 W/m2
04:00 0.4 °C -0.3 °C 1023.9 hPa Calm   3.2 km/h 95% 0 mm 0 W/m2
04:10 0.4 °C -0.3 °C 1023.9 hPa Calm   4.8 km/h 95% 0 mm 0 W/m2
04:20 0.4 °C -0.3 °C 1023.9 hPa Calm   3.2 km/h 95% 0 mm 0 W/m2
04:30 0.4 °C -0.3 °C 1023.9 hPa Calm   1.6 km/h 95% 0 mm 0 W/m2
04:40 0.5 °C -0.2 °C 1023.9 hPa Calm   1.6 km/h 95% 0 mm 0 W/m2
04:50 0.5 °C -0.2 °C 1023.6 hPa Calm   3.2 km/h 95% 0 mm 0 W/m2
05:00 0.5 °C -0.2 °C 1023.9 hPa Calm   3.2 km/h 95% 0 mm 0 W/m2
05:10 0.5 °C -0.2 °C 1023.9 hPa Calm   1.6 km/h 95% 0 mm 0 W/m2
05:20 0.6 °C -0.1 °C 1023.9 hPa Calm   4.8 km/h 95% 0 mm 0 W/m2
05:30 0.6 °C -0.1 °C 1023.9 hPa Calm   3.2 km/h 95% 0 mm 0 W/m2
05:40 0.6 °C -0.1 °C 1024.3 hPa ENE 3.2 km/h 4.8 km/h 95% 0 mm 0 W/m2
05:50 0.6 °C -0.1 °C 1024.3 hPa Calm   3.2 km/h 95% 0 mm 0 W/m2
06:00 0.6 °C -0.1 °C 1024.6 hPa Calm   3.2 km/h 95% 0 mm 0 W/m2
06:10 0.6 °C -0.1 °C 1024.3 hPa Calm   3.2 km/h 95% 0 mm 0 W/m2
06:20 0.6 °C -0.1 °C 1024.3 hPa Calm   3.2 km/h 95% 0 mm 0 W/m2
06:30 0.6 °C -0.1 °C 1024.6 hPa Calm   3.2 km/h 95% 0 mm 0 W/m2
06:40 0.5 °C -0.2 °C 1024.6 hPa NW 1.6 km/h 4.8 km/h 95% 0 mm 0 W/m2
06:50 0.5 °C -0.2 °C 1024.9 hPa Calm   4.8 km/h 95% 0 mm 0 W/m2
07:00 0.5 °C -0.2 °C 1024.9 hPa Calm   3.2 km/h 95% 0 mm 3 W/m2
07:10 0.5 °C -0.2 °C 1024.9 hPa NNW 3.2 km/h 8 km/h 95% 0 mm 7 W/m2
07:20 0.3 °C -0.4 °C 1024.9 hPa Calm   6.4 km/h 95% 0 mm 12 W/m2
07:30 0.2 °C -0.5 °C 1024.9 hPa WNW 3.2 km/h 6.4 km/h 95% 0 mm 26 W/m2
07:40 0.3 °C -0.4 °C 1025.3 hPa NNW 1.6 km/h 6.4 km/h 95% 0 mm 35 W/m2
07:50 0.2 °C -0.5 °C 1025.3 hPa Calm   3.2 km/h 95% 0 mm 37 W/m2
08:00 0.1 °C -0.6 °C 1025.3 hPa Calm   1.6 km/h 95% 0 mm 46 W/m2
08:10 0.1 °C -0.6 °C 1025.3 hPa Calm   4.8 km/h 95% 0 mm 95 W/m2
08:20 0.3 °C -0.3 °C 1025.3 hPa WNW 1.6 km/h 3.2 km/h 96% 0 mm 116 W/m2
08:30 0.8 °C 0.2 °C 1025.6 hPa Calm   3.2 km/h 96% 0 mm 135 W/m2
08:40 1.2 °C 0.5 °C 1025.6 hPa WNW 1.6 km/h 3.2 km/h 95% 0 mm 153 W/m2
08:50 1.7 °C 1 °C 1026 hPa West 1.6 km/h 3.2 km/h 95% 0 mm 171 W/m2
09:00 2.3 °C 1.4 °C 1026 hPa SW 1.6 km/h 6.4 km/h 94% 0 mm 113 W/m2
09:10 2.4 °C 1.4 °C 1026 hPa SW 1.6 km/h 6.4 km/h 93% 0 mm 181 W/m2
09:20 2.7 °C 1.4 °C 1026 hPa Calm   6.4 km/h 91% 0 mm 222 W/m2
09:30 3.4 °C 1.9 °C 1026 hPa ENE 1.6 km/h 8 km/h 90% 0 mm 237 W/m2
09:40 4.1 °C 1.9 °C 1026 hPa NNE 4.8 km/h 11.3 km/h 86% 0 mm 168 W/m2
09:50 4.3 °C 2 °C 1026.3 hPa North 1.6 km/h 14.5 km/h 85% 0 mm 117 W/m2
10:00 4.2 °C 1.7 °C 1026.3 hPa North 3.2 km/h 9.7 km/h 84% 0 mm 127 W/m2
10:10 4.1 °C 1.6 °C 1026.3 hPa NNE 1.6 km/h 9.7 km/h 84% 0 mm 90 W/m2
10:20 4 °C 1.6 °C 1026.3 hPa Calm   3.2 km/h 84% 0 mm 86 W/m2
10:30 3.9 °C 1.4 °C 1026 hPa North 3.2 km/h 9.7 km/h 84% 0 mm 164 W/m2
10:40 4.2 °C 1.7 °C 1026 hPa Calm   4.8 km/h 84% 0 mm 262 W/m2
10:50 4.6 °C 1.9 °C 1026 hPa West 1.6 km/h 3.2 km/h 83% 0 mm 174 W/m2
11:00 4.7 °C 1.7 °C 1026 hPa Calm   4.8 km/h 81% 0 mm 235 W/m2
11:10 5.3 °C 2.3 °C 1026 hPa NE 4.8 km/h 9.7 km/h 81% 0 mm 324 W/m2
11:20 6.1 °C 2.7 °C 1026 hPa NW 1.6 km/h 11.3 km/h 79% 0 mm 325 W/m2
11:30 6.5 °C 2.8 °C 1026 hPa West 3.2 km/h 6.4 km/h 77% 0 mm 325 W/m2
11:40 7 °C 3.3 °C 1025.6 hPa SW 3.2 km/h 9.7 km/h 77% 0 mm 324 W/m2
11:50 7.3 °C 2.9 °C 1025.6 hPa SW 9.7 km/h 11.3 km/h 74% 0 mm 321 W/m2
12:00 7.3 °C 2.9 °C 1026 hPa West 1.6 km/h 11.3 km/h 74% 0 mm 197 W/m2
12:10 7 °C 2.5 °C 1026 hPa WSW 3.2 km/h 6.4 km/h 73% 0 mm 173 W/m2
12:20 6.8 °C 2.3 °C 1025.6 hPa WSW 4.8 km/h 11.3 km/h 73% 0 mm 86 W/m2
12:30 6.5 °C 2.4 °C 1025.6 hPa WSW 4.8 km/h 12.9 km/h 75% 0 mm 106 W/m2
12:40 6.1 °C 2.6 °C 1025.6 hPa SW 9.7 km/h 12.9 km/h 78% 0 mm 168 W/m2
12:50 6 °C 2.4 °C 1025.6 hPa SW 9.7 km/h 14.5 km/h 78% 0 mm 276 W/m2
13:00 6.3 °C 2.6 °C 1025.6 hPa SW 8 km/h 14.5 km/h 77% 0 mm 264 W/m2
13:10 6.5 °C 2.4 °C 1025.6 hPa SW 8 km/h 12.9 km/h 75% 0 mm 171 W/m2
13:20 6.6 °C 2.5 °C 1025.6 hPa West 8 km/h 17.7 km/h 75% 0 mm 133 W/m2
13:30 6.3 °C 2 °C 1025.6 hPa WNW 12.9 km/h 20.9 km/h 74% 0 mm 44 W/m2
13:40 5.6 °C 1.5 °C 1025.6 hPa West 11.3 km/h 20.9 km/h 75% 0 mm 71 W/m2
13:50 5.2 °C 1.5 °C 1025.6 hPa WNW 9.7 km/h 19.3 km/h 77% 0 mm 104 W/m2
14:00 5.1 °C 1.6 °C 1025.6 hPa West 11.3 km/h 16.1 km/h 78% 0 mm 125 W/m2
14:10 4.9 °C 1.4 °C 1025.6 hPa West 9.7 km/h 20.9 km/h 78% 0 mm 100 W/m2
14:20 4.8 °C 1.3 °C 1025.6 hPa West 12.9 km/h 19.3 km/h 78% 0 mm 105 W/m2
14:30 4.7 °C 1.2 °C 1025.6 hPa West 9.7 km/h 14.5 km/h 78% 0 mm 86 W/m2
14:40 4.6 °C 1.1 °C 1025.6 hPa West 9.7 km/h 19.3 km/h 78% 0 mm 53 W/m2
14:50 4.4 °C 1.1 °C 1026 hPa West 12.9 km/h 20.9 km/h 79% 0 mm 43 W/m2
15:00 4.1 °C 0.8 °C 1026 hPa West 16.1 km/h 27.4 km/h 79% 0 mm 52 W/m2
15:10 3.9 °C 0.6 °C 1026 hPa West 14.5 km/h 27.4 km/h 79% 0 mm 38 W/m2
15:20 3.9 °C 0.8 °C 1026 hPa West 9.7 km/h 20.9 km/h 80% 0 mm 26 W/m2
15:30 3.7 °C 0.6 °C 1026.3 hPa West 8 km/h 19.3 km/h 80% 0 mm 12 W/m2
15:40 3.4 °C 0.3 °C 1026.3 hPa WNW 9.7 km/h 19.3 km/h 80% 0 mm 16 W/m2
15:50 3.1 °C -0.1 °C 1026.3 hPa WNW 14.5 km/h 22.5 km/h 80% 0 mm 8 W/m2
16:00 2.8 °C -0.1 °C 1026.6 hPa West 11.3 km/h 22.5 km/h 81% 0 mm 0 W/m2
16:10 2.5 °C -0.4 °C 1026.6 hPa West 11.3 km/h 20.9 km/h 81% 0 mm 0 W/m2
16:20 2.3 °C -0.3 °C 1026.6 hPa WNW 9.7 km/h 16.1 km/h 83% 0 mm 0 W/m2
16:30 2.1 °C -0.5 °C 1027 hPa WNW 12.9 km/h 24.1 km/h 83% 0 mm 0 W/m2
16:40 2 °C -0.4 °C 1027 hPa WNW 9.7 km/h 20.9 km/h 84% 0 mm 0 W/m2
16:50 1.9 °C -0.5 °C 1027 hPa West 9.7 km/h 16.1 km/h 84% 0 mm 0 W/m2
17:00 1.7 °C -0.7 °C 1027 hPa West 8 km/h 14.5 km/h 84% 0 mm 0 W/m2
17:10 1.7 °C -0.7 °C 1027 hPa WNW 8 km/h 14.5 km/h 84% 0 mm 0 W/m2
17:20 1.6 °C -0.8 °C 1027 hPa WNW 8 km/h 19.3 km/h 84% 0 mm 0 W/m2
17:30 1.5 °C -0.9 °C 1027 hPa WNW 8 km/h 17.7 km/h 84% 0 mm 0 W/m2
17:40 1.4 °C -0.8 °C 1027 hPa West 8 km/h 11.3 km/h 85% 0 mm 0 W/m2
17:50 1.2 °C -1.1 °C 1027.3 hPa West 1.6 km/h 8 km/h 85% 0 mm 0 W/m2
18:00 1.1 °C -1.2 °C 1027.3 hPa NW 3.2 km/h 9.7 km/h 85% 0 mm 0 W/m2
18:10 1.1 °C -1.2 °C 1027.3 hPa WNW 1.6 km/h 9.7 km/h 85% 0 mm 0 W/m2
18:20 0.9 °C -1.2 °C 1027.3 hPa ENE 1.6 km/h 6.4 km/h 86% 0 mm 0 W/m2
18:30 0.7 °C -1.4 °C 1027.3 hPa Calm   3.2 km/h 86% 0 mm 0 W/m2
18:40 0.4 °C -1.7 °C 1027.3 hPa North 3.2 km/h 3.2 km/h 86% 0 mm 0 W/m2
18:50 0.3 °C -1.4 °C 1027.3 hPa NE 1.6 km/h 4.8 km/h 88% 0 mm 0 W/m2
19:00 0.1 °C -1.7 °C 1027.3 hPa NW 1.6 km/h 3.2 km/h 88% 0 mm 0 W/m2
19:10 -0.1 °C -1.7 °C 1027.3 hPa SSE 3.2 km/h 8 km/h 89% 0 mm 0 W/m2
19:20 -0.3 °C -1.9 °C 1027.3 hPa South 1.6 km/h 8 km/h 89% 0 mm 0 W/m2
19:30 -0.4 °C -2 °C 1027.3 hPa WSW 1.6 km/h 3.2 km/h 89% 0 mm 0 W/m2
19:40 -0.6 °C -2.1 °C 1027.3 hPa Calm   3.2 km/h 90% 0 mm 0 W/m2
19:50 -0.7 °C -2.1 °C 1027.3 hPa WNW 3.2 km/h 3.2 km/h 90% 0 mm 0 W/m2
20:00 -0.7 °C -2 °C 1027.3 hPa West 1.6 km/h 4.8 km/h 91% 0 mm 0 W/m2
20:10 -0.8 °C -2.1 °C 1027.3 hPa WNW 1.6 km/h 3.2 km/h 91% 0 mm 0 W/m2
20:20 -0.8 °C -2.1 °C 1027.3 hPa WNW 1.6 km/h 3.2 km/h 91% 0 mm 0 W/m2
20:30 -0.8 °C -1.8 °C 1027 hPa West 3.2 km/h 3.2 km/h 93% 0 mm 0 W/m2
20:40 -0.8 °C -1.8 °C 1027 hPa Calm   3.2 km/h 93% 0 mm 0 W/m2
20:50 -0.8 °C -1.8 °C 1027 hPa Calm   3.2 km/h 93% 0 mm 0 W/m2
21:00 -0.8 °C -1.8 °C 1027.3 hPa Calm   1.6 km/h 93% 0 mm 0 W/m2
21:10 -0.8 °C -1.7 °C 1027.3 hPa North 1.6 km/h 3.2 km/h 94% 0 mm 0 W/m2
21:20 -0.7 °C -1.6 °C 1027 hPa Calm   3.2 km/h 94% 0 mm 0 W/m2
21:30 -0.7 °C -1.5 °C 1027 hPa Calm   3.2 km/h 94% 0 mm 0 W/m2
21:40 -0.7 °C -1.6 °C 1027 hPa WNW 1.6 km/h 3.2 km/h 94% 0 mm 0 W/m2
21:50 -0.7 °C -1.6 °C 1027 hPa Calm   3.2 km/h 94% 0 mm 0 W/m2
22:00 -0.7 °C -1.7 °C 1026.6 hPa Calm   3.2 km/h 93% 0 mm 0 W/m2
22:10 -0.6 °C -1.4 °C 1026.6 hPa Calm   3.2 km/h 94% 0 mm 0 W/m2
22:20 -0.6 °C -1.6 °C 1026.6 hPa Calm   3.2 km/h 93% 0 mm 0 W/m2
22:30 -0.6 °C -1.6 °C 1026.6 hPa Calm   3.2 km/h 93% 0 mm 0 W/m2
22:40 -0.4 °C -1.3 °C 1026.6 hPa North 3.2 km/h 6.4 km/h 94% 0 mm 0 W/m2
22:50 -0.6 °C -1.4 °C 1026.6 hPa Calm   4.8 km/h 94% 0 mm 0 W/m2
23:00 -0.6 °C -1.4 °C 1026.6 hPa Calm   3.2 km/h 94% 0 mm 0 W/m2
23:10 -0.6 °C -1.4 °C 1026.6 hPa Calm   3.2 km/h 94% 0 mm 0 W/m2
23:20 -0.8 °C -1.7 °C 1026.6 hPa Calm   1.6 km/h 94% 0 mm 0 W/m2
23:30 -0.9 °C -1.7 °C 1026.6 hPa North 1.6 km/h 3.2 km/h 94% 0 mm 0 W/m2
23:40 -0.9 °C -1.7 °C 1026.6 hPa WNW 3.2 km/h 8 km/h 94% 0 mm 0 W/m2
23:50 -1.1 °C -1.9 °C 1026.6 hPa NW 1.6 km/h 4.8 km/h 94% 0 mm 0 W/m2
Knjazevac, Serbia
Compliments of Weather Underground - 2 mb